Time;durP1;ratioP1;P1;durP2;ratioP2;P2;SDS_P1;SDS_P2;PMS_P1;PMS_P2;Temp;Humidity;BMP_temperature;BMP_pressure;BME280_temperature;BME280_humidity;BME280_pressure;Samples;Min_cycle;Max_cycle;Signal;HPM_P1;HPM_P2
2022/12/05 00:04:10;;;;;;;38.78;18.02;;;;;;;3.41;100.00;101949.34;10563162;28;20039;-71
2022/12/05 00:09:11;;;;;;;38.87;20.37;;;;;;;3.42;100.00;101942.84;10580309;28;20040;-71
2022/12/05 00:14:12;;;;;;;35.92;18.05;;;;;;;3.50;100.00;101952.00;10562965;28;20046;-72
2022/12/05 00:19:14;;;;;;;33.17;17.75;;;;;;;3.49;100.00;101944.84;10579717;28;20039;-72
2022/12/05 00:24:14;;;;;;;32.95;17.85;;;;;;;3.55;100.00;101950.41;10579010;28;20036;-72
2022/12/05 00:29:15;;;;;;;32.47;19.00;;;;;;;3.64;100.00;101956.69;10578797;28;20088;-71
2022/12/05 00:34:15;;;;;;;36.25;19.02;;;;;;;3.41;100.00;101908.50;10578866;28;20085;-71
2022/12/05 00:39:16;;;;;;;36.10;18.70;;;;;;;3.73;100.00;101960.19;10553099;28;20040;-71
2022/12/05 00:44:17;;;;;;;41.53;20.67;;;;;;;3.77;100.00;101956.91;10582318;27;20054;-71
2022/12/05 00:49:18;;;;;;;42.00;21.55;;;;;;;3.73;100.00;101949.28;10587769;27;20031;-72
2022/12/05 00:54:18;;;;;;;41.05;20.80;;;;;;;3.78;100.00;101952.28;10593441;27;20040;-72
2022/12/05 00:59:19;;;;;;;41.53;21.30;;;;;;;3.75;100.00;101942.63;10560714;27;20044;-72
2022/12/05 01:04:21;;;;;;;38.25;20.25;;;;;;;3.77;100.00;101940.56;10574383;28;20440;-71
2022/12/05 01:09:22;;;;;;;38.55;20.92;;;;;;;3.79;100.00;101943.09;10579545;28;20115;-72
2022/12/05 01:14:23;;;;;;;37.45;19.92;;;;;;;3.87;100.00;101950.38;10566691;27;20042;-72
2022/12/05 01:19:26;;;;;;;43.60;22.50;;;;;;;3.88;100.00;101947.44;10586592;27;20032;-71
2022/12/05 01:24:27;;;;;;;40.83;21.88;;;;;;;3.93;100.00;101960.53;10582244;27;20062;-72
2022/12/05 01:29:27;;;;;;;41.05;20.73;;;;;;;3.97;100.00;101964.56;10568643;27;21902;-72
2022/12/05 01:34:28;;;;;;;39.25;21.17;;;;;;;3.95;100.00;101953.84;10552497;27;20039;-72
2022/12/05 01:39:29;;;;;;;41.85;21.73;;;;;;;3.96;100.00;101954.69;10576424;27;20036;-71
2022/12/05 01:44:29;;;;;;;39.55;20.98;;;;;;;4.06;100.00;101960.75;10584663;27;20043;-71
2022/12/05 01:49:33;;;;;;;38.70;20.25;;;;;;;4.10;100.00;101963.94;10600889;27;20055;-72
2022/12/05 01:54:35;;;;;;;36.83;19.17;;;;;;;4.10;100.00;101967.50;10584426;27;20050;-72
2022/12/05 01:59:38;;;;;;;36.58;20.25;;;;;;;4.08;100.00;101950.50;10585023;27;20056;-71
2022/12/05 02:04:49;;;;;;;34.47;20.17;;;;;;;4.14;100.00;101957.94;10551694;27;20487;-71
2022/12/05 02:09:49;;;;;;;37.20;20.10;;;;;;;4.17;100.00;101960.28;10563721;27;20044;-71
2022/12/05 02:14:59;;;;;;;30.50;18.98;;;;;;;4.17;100.00;101952.09;10585318;27;20046;-72
2022/12/05 02:20:12;;;;;;;32.13;17.33;;;;;;;4.19;100.00;101950.03;10586076;27;20031;-72
2022/12/05 02:25:51;;;;;;;31.05;16.13;;;;;;;4.20;100.00;101948.19;10587783;27;20096;-72
2022/12/05 02:31:03;;;;;;;31.02;17.00;;;;;;;4.10;100.00;101925.78;10543975;27;20092;-72
2022/12/05 02:36:19;;;;;;;33.67;16.45;;;;;;;4.20;100.00;101940.00;10567765;27;20027;-71
2022/12/05 02:41:26;;;;;;;33.47;16.87;;;;;;;4.21;100.00;101941.69;10582389;27;20043;-72
2022/12/05 02:46:28;;;;;;;32.15;16.88;;;;;;;4.19;100.00;101941.84;10582678;27;20443;-72
2022/12/05 02:51:30;;;;;;;33.05;17.08;;;;;;;4.11;100.00;101931.03;10566201;27;20040;-72
2022/12/05 02:56:31;;;;;;;28.08;15.70;;;;;;;4.16;100.00;101946.84;10583225;27;20087;-72
2022/12/05 03:01:32;;;;;;;29.70;16.27;;;;;;;4.17;100.00;101946.66;10549136;27;20030;-73
2022/12/05 03:06:35;;;;;;;30.17;16.23;;;;;;;4.18;100.00;101948.34;10584166;27;20042;-73
2022/12/05 03:11:41;;;;;;;28.58;15.55;;;;;;;4.19;100.00;101955.47;10580972;27;20050;-73
2022/12/05 03:16:48;;;;;;;26.52;15.73;;;;;;;4.08;100.00;101936.88;10562698;28;20080;-72
2022/12/05 03:21:51;;;;;;;30.02;16.55;;;;;;;4.14;100.00;101940.75;10564854;28;20039;-73
2022/12/05 03:27:24;;;;;;;27.90;16.10;;;;;;;4.13;100.00;101942.59;10547622;27;20507;-73
2022/12/05 03:32:33;;;;;;;27.90;15.35;;;;;;;4.18;100.00;101953.81;10567167;27;20046;-72
2022/12/05 03:37:46;;;;;;;27.05;14.85;;;;;;;4.19;100.00;101960.94;10582465;27;20095;-72
2022/12/05 03:42:56;;;;;;;20.10;13.05;;;;;;;4.19;100.00;101955.47;10581213;28;20036;-72
2022/12/05 03:48:13;;;;;;;21.10;13.30;;;;;;;4.14;100.00;101949.75;10580386;28;20100;-72
2022/12/05 03:53:20;;;;;;;21.85;13.05;;;;;;;4.10;100.00;101945.72;10579133;28;20061;-72
2022/12/05 03:58:30;;;;;;;21.83;12.65;;;;;;;4.11;100.00;101944.66;10580270;28;20024;-73
2022/12/05 04:03:51;;;;;;;26.55;13.38;;;;;;;4.16;100.00;101955.88;10580609;28;20503;-72
2022/12/05 04:08:53;;;;;;;20.73;12.40;;;;;;;4.17;100.00;101962.16;10580941;28;20032;-72
2022/12/05 04:13:58;;;;;;;21.23;12.57;;;;;;;4.11;100.00;101952.84;10581181;27;20036;-73
2022/12/05 04:19:25;;;;;;;22.20;11.52;;;;;;;4.17;100.00;101959.44;10563371;28;20032;-72
2022/12/05 04:29:59;;;;;;;17.75;11.43;;;;;;;4.16;100.00;101974.94;10580118;28;20040;-72
2022/12/05 04:35:03;;;;;;;18.00;12.05;;;;;;;4.18;100.00;101963.88;10582494;28;20047;-72
2022/12/05 04:40:22;;;;;;;19.00;11.40;;;;;;;4.16;100.00;101969.50;10580498;28;20027;-71
2022/12/05 04:45:23;;;;;;;18.15;11.23;;;;;;;4.18;100.00;101964.72;10548994;28;20047;-72
2022/12/05 04:50:23;;;;;;;20.02;11.13;;;;;;;4.12;100.00;101965.44;10576782;27;20406;-71
2022/12/05 04:55:24;;;;;;;20.52;10.90;;;;;;;4.14;100.00;101963.38;10570093;27;20052;-72
2022/12/05 05:00:26;;;;;;;21.92;11.68;;;;;;;4.15;100.00;101964.22;10587577;28;20047;-72
2022/12/05 05:05:27;;;;;;;18.30;10.85;;;;;;;4.21;100.00;101979.84;10587744;27;20459;-72
2022/12/05 05:10:43;;;;;;;16.92;10.55;;;;;;;4.08;100.00;101947.78;10569741;27;20043;-72
2022/12/05 05:15:43;;;;;;;17.33;10.40;;;;;;;4.21;100.00;101975.22;10548424;27;20036;-72
2022/12/05 05:20:44;;;;;;;19.52;11.02;;;;;;;4.17;100.00;101971.19;10586389;27;20653;-72
2022/12/05 05:25:44;;;;;;;21.58;11.80;;;;;;;4.15;100.00;101970.53;10588310;27;20499;-72
2022/12/05 05:30:45;;;;;;;22.67;11.70;;;;;;;4.17;100.00;101968.44;10588093;27;20411;-72
2022/12/05 05:35:45;;;;;;;21.50;10.77;;;;;;;4.14;100.00;101971.56;10600414;27;20044;-72
2022/12/05 05:40:46;;;;;;;22.60;11.30;;;;;;;4.23;100.00;101984.06;10585140;27;20028;-72
2022/12/05 05:45:46;;;;;;;22.50;12.43;;;;;;;4.23;100.00;101984.06;10584484;28;20032;-72
2022/12/05 05:50:47;;;;;;;24.40;13.05;;;;;;;4.22;100.00;101976.09;10587713;27;20105;-72
2022/12/05 05:55:47;;;;;;;22.63;12.70;;;;;;;4.21;100.00;101975.22;10585246;27;20027;-72
2022/12/05 06:00:47;;;;;;;27.55;12.82;;;;;;;4.19;100.00;101971.84;10583380;27;20151;-72
2022/12/05 06:06:02;;;;;;;28.45;13.57;;;;;;;4.20;100.00;101979.00;10567315;27;20031;-72
2022/12/05 06:11:11;;;;;;;22.13;12.35;;;;;;;4.21;100.00;101972.50;10586451;27;20531;-71
2022/12/05 06:16:12;;;;;;;21.73;11.32;;;;;;;4.16;100.00;101971.38;10584553;27;20114;-72
2022/12/05 06:21:13;;;;;;;25.50;12.13;;;;;;;4.24;100.00;101985.78;10551249;27;20508;-73
2022/12/05 06:26:15;;;;;;;26.55;13.65;;;;;;;4.17;100.00;101968.44;10585438;27;20050;-72
2022/12/05 06:31:18;;;;;;;24.27;12.50;;;;;;;4.16;100.00;101972.22;10583595;27;20444;-72
2022/12/05 06:36:19;;;;;;;23.02;12.43;;;;;;;4.16;100.00;101977.69;10567578;27;20484;-72
2022/12/05 06:41:20;;;;;;;26.13;13.57;;;;;;;4.20;100.00;101979.00;10583524;28;20032;-72
2022/12/05 06:46:21;;;;;;;25.52;12.32;;;;;;;4.20;100.00;101978.16;10570786;27;20105;-72
2022/12/05 06:51:22;;;;;;;21.83;12.27;;;;;;;4.02;100.00;101960.25;10542547;28;20412;-72
2022/12/05 06:56:22;;;;;;;27.00;12.90;;;;;;;4.16;100.00;101977.69;10542570;28;20036;-72
2022/12/05 07:01:39;;;;;;;26.65;13.02;;;;;;;4.13;100.00;101975.31;10542471;28;20032;-73
2022/12/05 07:06:40;;;;;;;29.85;15.77;;;;;;;4.19;100.00;101999.09;10555448;28;20035;-73
2022/12/05 07:11:41;;;;;;;28.25;17.85;;;;;;;4.18;100.00;101994.69;10542654;28;20047;-73
2022/12/05 07:16:41;;;;;;;32.33;19.27;;;;;;;4.16;100.00;101988.56;10582907;27;20032;-73
2022/12/05 07:21:42;;;;;;;32.97;22.02;;;;;;;4.11;100.00;101980.09;10561424;28;20396;-73
2022/12/05 07:26:42;;;;;;;32.58;22.42;;;;;;;4.16;100.00;101994.03;10564320;28;20515;-72
2022/12/05 07:31:43;;;;;;;39.15;24.25;;;;;;;4.04;100.00;101968.25;10564670;27;20042;-72
2022/12/05 07:36:43;;;;;;;39.13;24.85;;;;;;;4.12;100.00;101975.50;10563089;27;20044;-72
2022/12/05 07:41:44;;;;;;;39.90;23.35;;;;;;;4.16;100.00;101985.84;10563239;27;20035;-73
2022/12/05 07:46:45;;;;;;;41.28;23.60;;;;;;;4.00;100.00;101956.03;10583135;27;20074;-72
2022/12/05 07:51:45;;;;;;;35.55;23.13;;;;;;;4.13;100.00;101983.47;10564480;28;20032;-72
2022/12/05 07:56:46;;;;;;;31.58;21.60;;;;;;;4.08;100.00;101966.00;10565588;28;20044;-73
2022/12/05 08:01:46;;;;;;;27.08;21.40;;;;;;;4.15;100.00;101981.41;10582501;28;20078;-72
2022/12/05 08:06:47;;;;;;;35.13;22.38;;;;;;;4.14;100.00;101985.19;10580992;28;20035;-72
2022/12/05 08:11:47;;;;;;;28.73;21.20;;;;;;;4.09;100.00;101982.16;10578874;28;20043;-72
2022/12/05 08:16:47;;;;;;;30.67;21.55;;;;;;;4.05;100.00;101986.28;10581807;28;20075;-72
2022/12/05 08:21:48;;;;;;;33.58;21.55;;;;;;;4.01;100.00;101974.94;10567448;27;20028;-71
2022/12/05 08:26:49;;;;;;;32.08;22.23;;;;;;;4.06;100.00;101982.53;10589104;27;20040;-73
2022/12/05 08:31:49;;;;;;;29.45;21.30;;;;;;;4.00;100.00;101972.38;10572257;27;20055;-72
2022/12/05 08:36:50;;;;;;;28.23;22.23;;;;;;;4.10;100.00;101994.78;10588554;27;20123;-72
2022/12/05 08:41:50;;;;;;;31.27;22.52;;;;;;;4.01;100.00;101985.81;10555259;27;20141;-73
2022/12/05 08:46:51;;;;;;;32.45;23.15;;;;;;;4.12;100.00;102011.78;10577778;27;20407;-72
2022/12/05 08:51:51;;;;;;;25.20;22.45;;;;;;;4.13;100.00;102021.63;10570090;27;20444;-72
2022/12/05 08:56:52;;;;;;;29.45;23.50;;;;;;;4.14;100.00;102023.34;10587699;27;20427;-73
2022/12/05 09:01:52;;;;;;;28.27;23.00;;;;;;;4.14;100.00;102017.91;10587989;27;20070;-72
2022/12/05 09:06:53;;;;;;;27.23;21.70;;;;;;;4.15;100.00;102014.13;10587936;27;20036;-72
2022/12/05 09:11:53;;;;;;;27.13;20.25;;;;;;;4.08;100.00;102005.00;10586415;28;20035;-72
2022/12/05 09:16:54;;;;;;;26.25;21.70;;;;;;;4.07;100.00;102006.03;10577092;27;21048;-71
2022/12/05 09:21:54;;;;;;;25.00;21.75;;;;;;;4.14;100.00;102023.34;10564948;27;20047;-71
2022/12/05 09:26:55;;;;;;;26.13;20.42;;;;;;;4.05;100.00;102008.06;10565638;27;20464;-71
2022/12/05 09:31:55;;;;;;;24.90;20.33;;;;;;;4.11;100.00;102011.97;10570265;27;20066;-72
2022/12/05 09:36:56;;;;;;;30.55;21.85;;;;;;;4.11;100.00;102012.78;10564185;27;20422;-72
2022/12/05 09:42:48;;;;;;;27.33;20.92;;;;;;;4.18;100.00;102018.38;10569230;27;20415;-71
2022/12/05 09:48:05;;;;;;;26.08;21.60;;;;;;;4.20;100.00;102022.63;10507837;28;20050;-71
2022/12/05 09:53:23;;;;;;;28.15;21.27;;;;;;;4.19;100.00;102018.19;10565071;27;21371;-72
2022/12/05 09:58:41;;;;;;;23.23;20.77;;;;;;;4.21;100.00;102007.09;10551739;28;20109;-71
2022/12/05 10:03:59;;;;;;;24.73;22.13;;;;;;;4.22;100.00;102009.66;10518585;27;20032;-72
2022/12/05 10:09:11;;;;;;;23.63;21.17;;;;;;;4.20;100.00;101998.09;10575217;27;20057;-71
2022/12/05 10:14:21;;;;;;;21.90;19.52;;;;;;;4.19;100.00;101992.81;10574464;27;20048;-73
2022/12/05 10:19:27;;;;;;;21.65;19.42;;;;;;;4.20;100.00;101991.78;10602139;27;20048;-72
2022/12/05 10:24:45;;;;;;;21.00;19.10;;;;;;;3.96;100.00;101949.25;10600347;27;20080;-71
2022/12/05 10:29:57;;;;;;;22.63;20.30;;;;;;;4.31;100.00;101996.78;10603657;27;20122;-72
2022/12/05 10:35:25;;;;;;;21.98;18.23;;;;;;;4.34;100.00;101992.81;10601914;27;20120;-71
2022/12/05 10:40:28;;;;;;;21.08;19.05;;;;;;;4.27;100.00;101979.09;10594358;27;20055;-71
2022/12/05 10:45:28;;;;;;;21.15;18.83;;;;;;;4.27;100.00;101972.81;10589410;27;20043;-71
2022/12/05 10:50:31;;;;;;;20.25;18.27;;;;;;;4.27;100.00;101972.81;10607925;27;20039;-71
2022/12/05 10:55:42;;;;;;;19.85;17.90;;;;;;;4.36;100.00;101993.50;10608317;27;20039;-71
2022/12/05 11:00:45;;;;;;;20.35;18.25;;;;;;;4.24;100.00;101968.59;10627140;27;20054;-71
2022/12/05 11:05:50;;;;;;;21.30;19.10;;;;;;;4.34;100.00;101987.38;10593028;27;20032;-71
2022/12/05 11:11:01;;;;;;;20.95;18.73;;;;;;;4.30;100.00;101983.31;10581458;28;20069;-71
2022/12/05 11:16:02;;;;;;;25.85;19.88;;;;;;;4.32;100.00;101976.69;10581802;27;20034;-72
2022/12/05 11:21:10;;;;;;;20.52;18.52;;;;;;;4.38;100.00;101981.38;10564898;28;20031;-70
2022/12/05 11:26:37;;;;;;;20.40;18.38;;;;;;;4.41;100.00;101981.00;10548181;28;20153;-72
2022/12/05 11:31:37;;;;;;;20.43;18.43;;;;;;;4.35;100.00;101964.56;10581350;27;20081;-72
2022/12/05 11:36:47;;;;;;;21.38;19.33;;;;;;;4.32;100.00;101949.41;10565005;27;20432;-72
2022/12/05 11:42:03;;;;;;;18.67;16.88;;;;;;;4.38;100.00;101965.03;10544034;28;20036;-72
2022/12/05 11:47:29;;;;;;;19.55;17.48;;;;;;;4.40;100.00;101970.28;10558433;28;20036;-72
2022/12/05 11:52:41;;;;;;;20.73;18.60;;;;;;;4.42;100.00;101968.22;10575086;28;20050;-72
2022/12/05 11:58:06;;;;;;;20.85;16.88;;;;;;;4.37;100.00;101957.03;10563275;28;20054;-72
2022/12/05 12:03:42;;;;;;;18.73;16.75;;;;;;;4.42;100.00;101954.56;10540573;28;20542;-72
2022/12/05 12:09:09;;;;;;;20.73;18.40;;;;;;;4.40;100.00;101957.50;10559490;27;20035;-72
2022/12/05 12:14:13;;;;;;;19.95;17.52;;;;;;;4.43;100.00;101942.66;10589346;27;20074;-72
2022/12/05 12:19:24;;;;;;;18.58;16.67;;;;;;;4.40;100.00;101934.81;10623191;27;20051;-72
2022/12/05 12:24:43;;;;;;;19.17;17.30;;;;;;;4.50;100.00;101946.31;10603655;27;20051;-71
2022/12/05 12:30:05;;;;;;;19.98;17.92;;;;;;;4.56;100.00;101940.09;10622954;27;20039;-72
2022/12/05 12:35:25;;;;;;;20.88;18.75;;;;;;;4.60;100.00;101937.84;10605910;27;20095;-72
2022/12/05 12:40:48;;;;;;;21.13;19.13;;;;;;;4.63;100.00;101932.88;10582668;27;20073;-72
2022/12/05 12:45:56;;;;;;;22.75;20.48;;;;;;;4.62;100.00;101933.88;10549542;28;20072;-72
2022/12/05 12:50:56;;;;;;;20.17;18.10;;;;;;;4.63;100.00;101938.31;10558597;28;20055;-71
2022/12/05 12:56:37;;;;;;;20.75;18.75;;;;;;;4.62;100.00;101933.06;10558741;28;20042;-72
2022/12/05 13:01:45;;;;;;;19.77;17.83;;;;;;;4.63;100.00;101945.63;10581197;28;20122;-72
2022/12/05 13:06:55;;;;;;;20.42;17.85;;;;;;;4.51;100.00;101915.28;10553716;28;20040;-72
2022/12/05 13:11:58;;;;;;;21.10;17.42;;;;;;;4.56;100.00;101929.19;10552621;27;20063;-71
2022/12/05 13:16:59;;;;;;;19.38;17.65;;;;;;;4.51;100.00;101925.34;10547549;27;20415;-71
2022/12/05 13:21:59;;;;;;;18.25;16.58;;;;;;;4.43;100.00;101916.22;10539328;27;20055;-71
2022/12/05 13:27:01;;;;;;;17.88;16.48;;;;;;;4.49;100.00;101920.09;10552738;27;20042;-71
2022/12/05 13:32:02;;;;;;;17.92;16.23;;;;;;;4.47;100.00;101930.34;10552479;27;20051;-71
2022/12/05 13:42:32;;;;;;;21.27;18.15;;;;;;;4.52;100.00;101929.75;10544417;27;20100;-72
2022/12/05 13:47:46;;;;;;;18.70;16.67;;;;;;;4.52;100.00;101933.31;10535498;27;20459;-71
2022/12/05 13:52:48;;;;;;;20.02;17.20;;;;;;;4.47;100.00;101924.88;10532529;27;20085;-71
2022/12/05 13:57:50;;;;;;;16.50;15.10;;;;;;;4.20;100.00;101897.22;10530451;27;20039;-72
2022/12/05 14:02:54;;;;;;;18.63;16.83;;;;;;;4.43;100.00;101926.28;10548766;27;20044;-72
2022/12/05 14:07:55;;;;;;;22.80;16.40;;;;;;;4.10;100.00;101880.31;10566902;27;20036;-71
2022/12/05 14:13:22;;;;;;;19.55;17.25;;;;;;;4.42;100.00;101928.19;10549097;27;20126;-71
2022/12/05 14:18:29;;;;;;;18.13;16.50;;;;;;;4.44;100.00;101930.69;10550752;27;20055;-72
2022/12/05 14:23:29;;;;;;;18.27;16.48;;;;;;;4.41;100.00;101928.34;10565216;28;20069;-71
2022/12/05 14:28:37;;;;;;;17.63;14.80;;;;;;;4.38;100.00;101935.03;10568811;27;20069;-71
2022/12/05 14:33:38;;;;;;;18.85;16.08;;;;;;;4.35;100.00;101926.38;10563971;27;20047;-72
2022/12/05 14:38:38;;;;;;;17.05;15.52;;;;;;;4.34;100.00;101921.94;10529054;27;20588;-72
2022/12/05 14:43:39;;;;;;;19.10;16.15;;;;;;;4.32;100.00;101926.75;10533470;27;20040;-71
2022/12/05 14:48:41;;;;;;;17.67;15.85;;;;;;;4.28;100.00;101931.75;10529637;28;20028;-71
2022/12/05 14:53:41;;;;;;;18.38;16.60;;;;;;;3.70;100.00;101835.25;10504573;28;20047;-71
2022/12/05 14:58:50;;;;;;;20.77;16.13;;;;;;;4.31;100.00;101941.41;10505753;27;20032;-73
2022/12/05 15:03:57;;;;;;;18.20;15.70;;;;;;;4.30;100.00;101946.03;10549094;27;20044;-73
2022/12/05 15:08:57;;;;;;;18.95;16.50;;;;;;;4.28;100.00;101944.50;10549184;27;20044;-73
2022/12/05 15:14:07;;;;;;;18.70;16.40;;;;;;;4.27;100.00;101945.56;10512572;27;20169;-73
2022/12/05 15:19:14;;;;;;;18.30;16.38;;;;;;;4.22;100.00;101944.22;10565964;27;20059;-73
2022/12/05 15:24:18;;;;;;;20.58;15.85;;;;;;;4.17;100.00;101949.38;10541624;27;20063;-72
2022/12/05 15:29:24;;;;;;;21.67;16.27;;;;;;;4.24;100.00;101963.97;10548374;28;20044;-72
2022/12/05 15:34:27;;;;;;;25.20;17.10;;;;;;;4.10;100.00;101937.53;10567512;27;20507;-71
2022/12/05 15:39:27;;;;;;;19.73;16.80;;;;;;;4.18;100.00;101953.81;10535640;27;20065;-71
2022/12/05 15:44:28;;;;;;;21.08;17.27;;;;;;;4.16;100.00;101961.31;10523227;28;20062;-71
2022/12/05 15:49:28;;;;;;;21.55;18.75;;;;;;;4.22;100.00;101968.75;10506192;27;20063;-72
2022/12/05 15:54:31;;;;;;;23.70;19.02;;;;;;;4.13;100.00;101953.50;10531534;27;20043;-71
2022/12/05 15:59:36;;;;;;;23.52;19.20;;;;;;;4.17;100.00;101963.00;10547733;28;20027;-72
2022/12/05 16:04:43;;;;;;;23.92;18.70;;;;;;;4.14;100.00;101957.09;10564833;28;20043;-70
2022/12/05 16:09:43;;;;;;;;;;;;;;;4.14;100.00;101963.38;10532035;28;20031;-71
2022/12/05 16:14:44;;;;;;;19.83;17.63;;;;;;;4.04;100.00;101949.19;10498904;28;19920;-71
2022/12/05 16:19:44;;;;;;;26.23;19.15;;;;;;;4.04;100.00;101958.19;10586699;27;20433;-71
2022/12/05 16:24:58;;;;;;;22.60;17.00;;;;;;;4.01;100.00;101957.69;10590458;27;20582;-70
2022/12/05 16:30:25;;;;;;;20.23;18.10;;;;;;;4.05;100.00;101975.38;10596220;27;20046;-72
2022/12/05 16:35:34;;;;;;;20.25;18.27;;;;;;;4.02;100.00;101967.59;10595810;27;20096;-72
2022/12/05 16:40:34;;;;;;;19.35;17.45;;;;;;;4.04;100.00;101973.69;10553847;28;20464;-71
2022/12/05 16:45:42;;;;;;;22.42;20.13;;;;;;;4.04;100.00;101973.69;10587151;27;20048;-73
2022/12/05 16:50:43;;;;;;;24.00;18.15;;;;;;;4.01;100.00;101964.03;10588907;27;20035;-72
2022/12/05 16:55:44;;;;;;;24.45;18.65;;;;;;;4.07;100.00;101970.59;10587502;27;20044;-72
2022/12/05 17:00:44;;;;;;;19.25;17.13;;;;;;;4.09;100.00;101975.88;10587697;27;20076;-72
2022/12/05 17:05:45;;;;;;;24.45;18.75;;;;;;;4.02;100.00;101960.25;10590313;27;20043;-72
2022/12/05 17:10:45;;;;;;;22.40;19.20;;;;;;;4.00;100.00;101956.88;10588508;27;20050;-72
2022/12/05 17:15:46;;;;;;;21.92;18.30;;;;;;;4.01;100.00;101969.47;10544481;28;20040;-72
2022/12/05 17:20:52;;;;;;;22.95;18.98;;;;;;;3.76;100.00;101922.53;10528385;28;20031;-72
2022/12/05 17:25:53;;;;;;;23.23;19.40;;;;;;;4.04;100.00;101969.09;10528486;28;20036;-72
2022/12/05 17:30:54;;;;;;;21.23;18.48;;;;;;;3.98;100.00;101958.94;10544393;28;20047;-73
2022/12/05 17:35:54;;;;;;;25.73;17.75;;;;;;;4.05;100.00;101978.09;10544874;28;20036;-72
2022/12/05 17:40:55;;;;;;;20.98;18.52;;;;;;;4.11;100.00;101984.72;10572668;28;20035;-73
2022/12/05 17:45:58;;;;;;;25.13;21.65;;;;;;;4.06;100.00;101982.53;10584774;27;20039;-73
2022/12/05 17:50:59;;;;;;;24.50;20.77;;;;;;;4.08;100.00;101987.81;10585903;27;20040;-74
2022/12/05 17:55:59;;;;;;;27.00;19.52;;;;;;;4.07;100.00;101986.09;10591642;27;20053;-74
2022/12/05 18:01:01;;;;;;;21.10;18.15;;;;;;;4.01;100.00;101993.13;10621185;27;20031;-74
2022/12/05 18:06:03;;;;;;;22.42;19.98;;;;;;;4.08;100.00;102001.44;10592709;27;20034;-74
2022/12/05 18:11:04;;;;;;;29.80;20.40;;;;;;;4.13;100.00;102008.00;10608040;27;20062;-73
2022/12/05 18:16:05;;;;;;;26.92;21.00;;;;;;;4.11;100.00;102007.34;10624681;27;20485;-73
2022/12/05 18:21:10;;;;;;;30.20;20.90;;;;;;;4.10;100.00;102013.00;10618766;27;20031;-73
2022/12/05 18:26:11;;;;;;;22.65;20.17;;;;;;;4.07;100.00;102005.19;10619608;27;20054;-73
2022/12/05 18:31:15;;;;;;;28.27;22.13;;;;;;;4.03;100.00;102007.41;10618375;27;20095;-73
2022/12/05 18:36:17;;;;;;;30.42;22.35;;;;;;;3.68;100.00;101968.91;10580918;27;20043;-74
2022/12/05 18:41:18;;;;;;;31.92;23.92;;;;;;;4.08;100.00;102017.78;10551163;27;20075;-72
2022/12/05 18:46:18;;;;;;;30.90;23.27;;;;;;;4.11;100.00;102015.53;10576962;27;20032;-72
2022/12/05 18:51:21;;;;;;;32.10;23.13;;;;;;;4.13;100.00;102023.53;10619796;27;20039;-72
2022/12/05 18:56:29;;;;;;;29.38;22.63;;;;;;;4.03;100.00;102011.00;10606174;27;20064;-71
2022/12/05 19:01:31;;;;;;;32.33;24.98;;;;;;;4.10;100.00;102019.28;10600931;27;20042;-72
2022/12/05 19:06:33;;;;;;;35.97;25.08;;;;;;;4.10;100.00;102016.56;10603301;27;20103;-71
2022/12/05 19:11:33;;;;;;;33.03;24.15;;;;;;;4.09;100.00;102028.50;10600431;27;20098;-71
2022/12/05 19:16:34;;;;;;;32.92;23.52;;;;;;;4.08;100.00;102017.78;10620781;27;20035;-70
2022/12/05 19:21:35;;;;;;;35.40;23.10;;;;;;;4.00;100.00;102015.97;10599670;27;20074;-71
2022/12/05 19:26:35;;;;;;;38.22;25.85;;;;;;;4.10;100.00;102032.09;10604975;27;20041;-71
2022/12/05 19:31:36;;;;;;;39.47;25.27;;;;;;;4.02;100.00;102022.09;10621693;27;20108;-71
2022/12/05 19:36:41;;;;;;;32.92;24.95;;;;;;;4.00;100.00;102024.16;10604678;27;20064;-71
2022/12/05 19:41:42;;;;;;;31.27;25.52;;;;;;;4.08;100.00;102034.97;10587765;27;20061;-71
2022/12/05 19:46:42;;;;;;;34.58;25.58;;;;;;;3.67;100.00;101967.19;10620243;27;20108;-73
2022/12/05 19:51:43;;;;;;;31.63;24.83;;;;;;;4.09;100.00;102031.22;10604396;27;20042;-74
2022/12/05 19:56:43;;;;;;;39.58;24.98;;;;;;;3.95;100.00;102007.47;10617401;27;20062;-73
2022/12/05 20:01:44;;;;;;;32.72;23.88;;;;;;;4.08;100.00;102024.09;10599844;27;20499;-73
2022/12/05 20:06:46;;;;;;;32.72;23.60;;;;;;;4.09;100.00;102033.94;10565547;28;20032;-73
2022/12/05 20:11:47;;;;;;;27.52;22.13;;;;;;;4.10;100.00;102038.38;10595492;27;20099;-73
2022/12/05 20:16:48;;;;;;;34.40;22.38;;;;;;;4.09;100.00;102031.22;10574162;27;20031;-73
2022/12/05 20:21:48;;;;;;;32.35;23.10;;;;;;;4.06;100.00;102020.69;10605898;27;20039;-73
2022/12/05 20:26:49;;;;;;;34.90;23.35;;;;;;;4.07;100.00;102022.38;10629898;27;20050;-74
2022/12/05 20:31:51;;;;;;;29.10;22.52;;;;;;;4.11;100.00;102031.88;10626614;27;20035;-73
2022/12/05 20:36:52;;;;;;;37.22;22.30;;;;;;;4.05;100.00;102018.97;10599119;27;20042;-74
2022/12/05 20:41:52;;;;;;;33.08;23.05;;;;;;;4.15;100.00;102030.47;10614219;27;20042;-74
2022/12/05 20:46:53;;;;;;;29.73;22.55;;;;;;;4.17;100.00;102028.41;10591751;27;20036;-74
2022/12/05 20:51:53;;;;;;;28.65;23.17;;;;;;;4.15;100.00;102025.03;10592680;27;20081;-74
2022/12/05 20:56:55;;;;;;;28.27;21.58;;;;;;;4.17;100.00;102028.41;10593398;27;20061;-73
2022/12/05 21:01:55;;;;;;;30.15;22.98;;;;;;;3.97;100.00;101995.41;10592925;27;20040;-73
2022/12/05 21:06:56;;;;;;;30.15;22.65;;;;;;;4.10;100.00;102022.03;10592736;27;20039;-73
2022/12/05 21:11:56;;;;;;;30.98;21.38;;;;;;;4.13;100.00;102029.81;10607335;27;20062;-71
2022/12/05 21:16:57;;;;;;;26.70;21.70;;;;;;;4.15;100.00;102030.47;10592660;27;20035;-73
2022/12/05 21:21:57;;;;;;;27.40;21.73;;;;;;;4.10;100.00;102016.56;10592527;27;20031;-73
2022/12/05 21:26:58;;;;;;;25.05;21.83;;;;;;;4.17;100.00;102025.69;10557877;27;20055;-72
2022/12/05 21:31:58;;;;;;;32.10;22.38;;;;;;;4.18;100.00;102035.56;10563493;27;20044;-72
2022/12/05 21:37:00;;;;;;;31.80;20.95;;;;;;;4.17;100.00;102022.97;10585203;27;20127;-73
2022/12/05 21:42:01;;;;;;;28.52;22.05;;;;;;;4.14;100.00;102023.34;10581139;27;20043;-73
2022/12/05 21:47:01;;;;;;;32.13;22.67;;;;;;;4.16;100.00;102024.00;10587341;27;20031;-73
2022/12/05 21:52:02;;;;;;;28.40;21.48;;;;;;;4.16;100.00;102023.19;10585958;27;20073;-72
2022/12/05 21:57:02;;;;;;;28.05;20.50;;;;;;;4.19;100.00;102036.41;10584807;27;20081;-72
2022/12/05 22:02:03;;;;;;;25.25;22.02;;;;;;;4.10;100.00;102011.13;10537196;27;20046;-72
2022/12/05 22:07:03;;;;;;;32.60;23.05;;;;;;;4.13;100.00;102016.19;10559588;27;20046;-73
2022/12/05 22:12:04;;;;;;;28.13;23.42;;;;;;;4.22;100.00;102026.00;10566679;27;20040;-73
2022/12/05 22:17:05;;;;;;;31.23;22.00;;;;;;;4.21;100.00;102024.28;10586021;27;20038;-73
2022/12/05 22:22:05;;;;;;;28.40;21.67;;;;;;;4.20;100.00;102022.63;10584708;27;20066;-72
2022/12/05 22:27:06;;;;;;;31.92;22.00;;;;;;;4.17;100.00;102006.63;10619080;27;20058;-72
2022/12/05 22:32:06;;;;;;;25.23;22.52;;;;;;;4.20;100.00;102006.25;10613593;27;20110;-72
2022/12/05 22:37:07;;;;;;;23.77;21.25;;;;;;;4.20;100.00;102006.25;10621281;27;20047;-72
2022/12/05 22:42:07;;;;;;;23.90;21.25;;;;;;;4.18;100.00;102002.88;10585602;27;20395;-72
2022/12/05 22:47:08;;;;;;;23.52;21.20;;;;;;;4.16;100.00;101999.47;10621505;27;20039;-72
2022/12/05 22:52:08;;;;;;;23.70;20.65;;;;;;;4.17;100.00;102001.16;10602102;27;20051;-72
2022/12/05 22:57:08;;;;;;;25.45;22.27;;;;;;;4.16;100.00;101996.75;10603028;27;20043;-73
2022/12/05 23:02:09;;;;;;;22.80;20.50;;;;;;;3.84;100.00;101946.09;10582908;27;20070;-69